createdAt,value
2022-10-17T00:02:22.129Z,31.02
2022-10-17T00:04:52.202Z,31.03
2022-10-17T00:07:22.052Z,31.03
2022-10-17T00:09:52.830Z,31.02
2022-10-17T00:12:22.992Z,31.00
2022-10-17T00:14:53.060Z,30.98
2022-10-17T00:17:25.045Z,30.97
2022-10-17T00:19:55.200Z,30.96
2022-10-17T00:22:27.789Z,30.95
2022-10-17T00:25:08.412Z,30.95
2022-10-17T00:27:40.048Z,30.94
2022-10-17T00:30:14.586Z,30.96
2022-10-17T00:32:46.177Z,30.97
2022-10-17T00:35:17.010Z,30.97
2022-10-17T00:37:47.003Z,30.97
2022-10-17T00:40:17.095Z,30.97
2022-10-17T00:42:48.310Z,30.96
2022-10-17T00:45:26.611Z,30.95
2022-10-17T00:48:09.829Z,30.93
2022-10-17T00:50:50.694Z,30.90
2022-10-17T00:53:21.893Z,30.88
2022-10-17T00:55:56.669Z,30.86
2022-10-17T00:58:27.041Z,30.84
2022-10-17T01:00:56.938Z,30.82
2022-10-17T01:03:29.244Z,30.81
2022-10-17T01:05:59.976Z,30.79
2022-10-17T01:08:30.058Z,30.76
2022-10-17T01:11:26.849Z,30.76
2022-10-17T01:14:07.609Z,30.73
2022-10-17T01:16:53.579Z,30.72
2022-10-17T01:20:00.660Z,30.70
2022-10-17T01:22:42.047Z,30.68
2022-10-17T01:25:31.887Z,30.67
2022-10-17T01:28:35.130Z,30.62
2022-10-17T01:31:16.018Z,30.61
2022-10-17T01:34:01.417Z,30.59
2022-10-17T01:37:07.621Z,30.59
2022-10-17T01:39:48.839Z,30.58
2022-10-17T01:42:24.189Z,30.56
2022-10-17T01:45:02.986Z,30.56
2022-10-17T01:47:51.156Z,30.55
2022-10-17T01:50:28.088Z,30.53
2022-10-17T01:53:04.847Z,30.52
2022-10-17T01:55:38.855Z,30.51
2022-10-17T01:58:14.945Z,30.48
2022-10-17T02:00:49.966Z,30.47
2022-10-17T02:03:27.233Z,30.47
2022-10-17T02:06:00.165Z,30.45
2022-10-17T02:08:42.485Z,30.44
2022-10-17T02:11:24.994Z,30.42
2022-10-17T02:14:23.333Z,30.40
2022-10-17T02:20:20.684Z,30.34
2022-10-17T02:26:19.552Z,30.30
2022-10-17T02:29:14.722Z,30.26
2022-10-17T02:31:50.715Z,30.22
2022-10-17T02:34:27.546Z,30.21
2022-10-17T02:37:12.136Z,30.22
2022-10-17T02:39:44.903Z,30.21
2022-10-17T02:42:20.649Z,30.22
2022-10-17T02:44:52.074Z,30.20
2022-10-17T02:47:29.453Z,30.20
2022-10-17T02:50:00.553Z,30.19
2022-10-17T02:52:53.595Z,30.20
2022-10-17T02:55:30.563Z,30.19
2022-10-17T02:58:15.562Z,30.18
2022-10-17T03:00:46.986Z,30.17
2022-10-17T03:03:27.106Z,30.18
2022-10-17T03:05:57.502Z,30.15
2022-10-17T03:08:29.185Z,30.15
2022-10-17T03:10:59.342Z,30.12
2022-10-17T03:13:29.637Z,30.13
2022-10-17T03:16:00.061Z,30.10
2022-10-17T03:18:29.994Z,30.09
2022-10-17T03:21:03.046Z,30.05
2022-10-17T03:23:34.544Z,30.03
2022-10-17T03:26:06.782Z,30.01
2022-10-17T03:28:39.449Z,29.98
2022-10-17T03:31:16.180Z,29.97
2022-10-17T03:33:46.161Z,29.95
2022-10-17T03:36:20.907Z,29.95
2022-10-17T03:38:56.359Z,29.95
2022-10-17T03:41:26.440Z,29.92
2022-10-17T03:43:56.712Z,29.92
2022-10-17T03:46:26.755Z,29.92
2022-10-17T03:48:59.538Z,29.91
2022-10-17T03:51:29.774Z,29.89
2022-10-17T03:54:01.253Z,29.87
2022-10-17T03:56:34.047Z,29.85
2022-10-17T03:59:04.651Z,29.83
2022-10-17T04:01:35.774Z,29.82
2022-10-17T04:04:05.883Z,29.81
2022-10-17T04:06:36.119Z,29.80
2022-10-17T04:09:10.600Z,29.79
2022-10-17T04:11:55.274Z,29.78
2022-10-17T04:14:25.411Z,29.77
2022-10-17T04:16:55.474Z,29.76
2022-10-17T04:19:26.646Z,29.75
2022-10-17T04:21:57.700Z,29.74
2022-10-17T04:24:31.945Z,29.77
2022-10-17T04:27:02.048Z,29.78
2022-10-17T04:29:32.120Z,29.81
2022-10-17T04:32:02.108Z,29.84
2022-10-17T04:34:32.067Z,29.88
2022-10-17T04:37:02.110Z,29.93
2022-10-17T04:39:35.248Z,30.00
2022-10-17T04:42:05.286Z,30.05
2022-10-17T04:44:36.194Z,30.12
2022-10-17T04:47:06.315Z,30.18
2022-10-17T04:49:36.574Z,30.23
2022-10-17T04:52:07.071Z,30.31
2022-10-17T04:54:38.627Z,30.37
2022-10-17T04:57:08.731Z,30.42
2022-10-17T04:59:39.470Z,30.50
2022-10-17T05:02:09.743Z,30.58
2022-10-17T05:04:40.829Z,30.68
2022-10-17T05:07:11.689Z,30.77
2022-10-17T05:10:02.877Z,30.87
2022-10-17T05:12:35.847Z,30.96
2022-10-17T05:15:06.567Z,31.06
2022-10-17T05:17:36.840Z,31.14
2022-10-17T05:20:11.348Z,31.25
2022-10-17T05:22:42.197Z,31.33
2022-10-17T05:25:50.768Z,31.42
2022-10-17T05:28:21.080Z,31.49
2022-10-17T05:30:51.502Z,31.59
2022-10-17T05:33:21.682Z,31.68
2022-10-17T05:35:52.208Z,31.78
2022-10-17T05:38:22.234Z,31.87
2022-10-17T05:40:53.831Z,31.97
2022-10-17T05:43:23.948Z,32.07
2022-10-17T05:45:54.567Z,32.16
2022-10-17T05:48:26.096Z,32.25
2022-10-17T05:51:01.783Z,32.35
2022-10-17T05:53:34.470Z,32.45
2022-10-17T05:56:12.853Z,32.57
2022-10-17T05:58:50.985Z,32.66
2022-10-17T06:01:25.586Z,32.76
2022-10-17T06:03:56.480Z,32.84
2022-10-17T06:06:26.542Z,32.96
2022-10-17T06:08:59.557Z,33.03
2022-10-17T06:11:34.851Z,33.13
2022-10-17T06:14:05.759Z,33.22
2022-10-17T06:16:35.957Z,33.30
2022-10-17T06:19:06.006Z,33.39
2022-10-17T06:21:38.220Z,33.47
2022-10-17T06:24:08.368Z,33.56
2022-10-17T06:26:40.764Z,33.67
2022-10-17T06:29:12.121Z,33.76
2022-10-17T06:31:42.860Z,33.88
2022-10-17T06:34:13.051Z,33.97
2022-10-17T06:36:43.211Z,34.06
2022-10-17T06:39:13.742Z,34.16
2022-10-17T06:41:45.376Z,34.25
2022-10-17T06:44:15.727Z,34.33
2022-10-17T06:46:45.854Z,34.39
2022-10-17T06:49:16.297Z,34.46
2022-10-17T06:51:49.293Z,34.53
2022-10-17T06:54:19.689Z,34.61
2022-10-17T06:56:54.528Z,34.65
2022-10-17T06:59:27.435Z,34.70
2022-10-17T07:01:57.444Z,34.75
2022-10-17T07:04:27.878Z,34.83
2022-10-17T07:07:06.951Z,34.88
2022-10-17T07:09:37.355Z,34.92
2022-10-17T07:12:13.215Z,34.97
2022-10-17T07:14:47.907Z,35.01
2022-10-17T07:17:27.337Z,35.04
2022-10-17T07:19:57.700Z,35.09
2022-10-17T07:22:27.834Z,35.17
2022-10-17T07:24:58.067Z,35.26
2022-10-17T07:27:29.866Z,35.33
2022-10-17T07:30:00.786Z,35.41
2022-10-17T07:32:31.166Z,35.49
2022-10-17T07:35:01.799Z,35.55
2022-10-17T07:37:32.619Z,35.61
2022-10-17T07:40:03.424Z,35.67
2022-10-17T07:45:14.040Z,35.80
2022-10-17T07:47:44.827Z,35.86
2022-10-17T07:50:14.954Z,35.91
2022-10-17T07:52:47.813Z,35.96
2022-10-17T07:55:27.106Z,36.01
2022-10-17T07:58:01.739Z,36.07
2022-10-17T08:00:33.644Z,36.12
2022-10-17T08:03:03.930Z,36.18
2022-10-17T08:05:35.408Z,36.24
2022-10-17T08:08:13.578Z,36.30
2022-10-17T08:10:49.359Z,36.37
2022-10-17T08:13:21.099Z,36.42
2022-10-17T08:15:51.584Z,36.47
2022-10-17T08:18:21.681Z,36.52
2022-10-17T08:20:54.542Z,36.56
2022-10-17T08:23:25.650Z,36.58
2022-10-17T08:25:56.049Z,36.60
2022-10-17T08:28:28.144Z,36.61
2022-10-17T08:31:26.338Z,36.62
2022-10-17T08:34:00.623Z,36.60
2022-10-17T08:36:31.234Z,36.59
2022-10-17T08:39:04.301Z,36.57
2022-10-17T08:41:53.371Z,36.56
2022-10-17T08:44:48.383Z,36.54
2022-10-17T08:47:31.227Z,36.53
2022-10-17T08:50:06.612Z,36.50
2022-10-17T08:52:44.501Z,36.50
2022-10-17T08:57:55.837Z,36.45
2022-10-17T09:00:34.780Z,36.43
2022-10-17T09:03:31.215Z,36.40
2022-10-17T09:06:23.282Z,36.38
2022-10-17T09:09:31.209Z,36.33
2022-10-17T09:12:18.387Z,36.29
2022-10-17T09:15:32.008Z,36.26
2022-10-17T09:18:16.663Z,36.19
2022-10-17T09:20:55.581Z,36.15
2022-10-17T09:23:42.460Z,36.12
2022-10-17T09:26:15.369Z,36.09
2022-10-17T09:28:49.316Z,36.07
2022-10-17T09:31:27.637Z,36.05
2022-10-17T09:34:27.525Z,36.00
2022-10-17T09:37:01.166Z,35.94
2022-10-17T09:39:33.594Z,35.90
2022-10-17T09:42:05.536Z,35.89
2022-10-17T09:44:58.006Z,35.86
2022-10-17T09:47:37.117Z,35.84
2022-10-17T09:50:22.561Z,35.81
2022-10-17T09:53:46.395Z,35.72
2022-10-17T09:56:20.642Z,35.62
2022-10-17T09:59:01.344Z,35.57
2022-10-17T10:01:35.540Z,35.53
2022-10-17T10:04:15.302Z,35.50
2022-10-17T10:07:07.777Z,35.47
2022-10-17T10:09:41.882Z,35.41
2022-10-17T10:12:24.058Z,35.37
2022-10-17T10:14:55.535Z,35.32
2022-10-17T10:17:45.503Z,35.31
2022-10-17T10:20:35.187Z,35.27
2022-10-17T10:23:18.522Z,35.25
2022-10-17T10:26:01.493Z,35.23
2022-10-17T10:28:36.713Z,35.20
2022-10-17T10:31:39.658Z,35.18
2022-10-17T10:34:24.764Z,35.13
2022-10-17T10:37:03.053Z,35.09
2022-10-17T10:39:48.364Z,35.06
2022-10-17T10:42:30.720Z,35.03
2022-10-17T10:45:09.280Z,34.99
2022-10-17T10:47:51.949Z,34.95
2022-10-17T10:50:32.526Z,34.93
2022-10-17T10:53:35.467Z,34.90
2022-10-17T10:56:22.642Z,34.85
2022-10-17T10:59:04.890Z,34.81
2022-10-17T11:02:01.847Z,34.77
2022-10-17T11:04:44.184Z,34.73
2022-10-17T11:07:24.186Z,34.70
2022-10-17T11:10:07.034Z,34.67
2022-10-17T11:15:30.299Z,34.59
2022-10-17T11:18:14.952Z,34.56
2022-10-17T11:21:05.309Z,34.54
2022-10-17T11:23:46.017Z,34.49
2022-10-17T11:26:27.753Z,34.43
2022-10-17T11:29:07.370Z,34.39
2022-10-17T11:31:53.073Z,34.35
2022-10-17T11:34:29.265Z,34.29
2022-10-17T11:37:06.611Z,34.25
2022-10-17T11:39:59.261Z,34.21
2022-10-17T11:43:01.150Z,34.17
2022-10-17T11:45:50.565Z,34.11
2022-10-17T11:48:30.231Z,34.07
2022-10-17T11:54:18.580Z,33.98
2022-10-17T11:57:18.569Z,33.95
2022-10-17T12:00:23.289Z,33.89
2022-10-17T12:03:25.288Z,33.84
2022-10-17T12:06:14.475Z,33.80
2022-10-17T12:08:56.428Z,33.75
2022-10-17T12:11:46.145Z,33.71
2022-10-17T12:14:41.446Z,33.69
2022-10-17T12:17:39.597Z,33.66
2022-10-17T12:20:44.349Z,33.62
2022-10-17T12:23:32.352Z,33.60
2022-10-17T12:26:05.458Z,33.59
2022-10-17T12:28:45.302Z,33.59
2022-10-17T12:31:33.340Z,33.58
2022-10-17T12:34:06.988Z,33.56
2022-10-17T12:36:53.143Z,33.54
2022-10-17T12:39:56.226Z,33.51
2022-10-17T12:43:02.900Z,33.47
2022-10-17T12:45:52.015Z,33.46
2022-10-17T12:49:42.741Z,33.42
2022-10-17T12:53:00.364Z,33.40
2022-10-17T12:55:36.127Z,33.38
2022-10-17T12:58:16.011Z,33.37
2022-10-17T13:03:50.419Z,33.31
2022-10-17T13:06:26.450Z,33.27
2022-10-17T13:09:05.567Z,33.26
2022-10-17T13:11:39.977Z,33.25
2022-10-17T13:14:16.307Z,33.24
2022-10-17T13:16:58.416Z,33.21
2022-10-17T13:19:32.479Z,33.17
2022-10-17T13:22:07.272Z,33.14
2022-10-17T13:24:41.336Z,33.13
2022-10-17T13:27:31.120Z,33.12
2022-10-17T13:30:05.453Z,33.11
2022-10-17T13:33:01.148Z,33.09
2022-10-17T13:35:58.789Z,33.07
2022-10-17T13:38:42.654Z,33.06
2022-10-17T13:44:18.537Z,33.03
2022-10-17T13:46:48.910Z,33.00
2022-10-17T13:49:28.043Z,32.99
2022-10-17T13:52:01.049Z,32.96
2022-10-17T13:54:43.656Z,32.92
2022-10-17T13:57:27.624Z,32.91
2022-10-17T14:00:01.682Z,32.90
2022-10-17T14:02:35.246Z,32.88
2022-10-17T14:05:18.307Z,32.89
2022-10-17T14:10:54.682Z,32.88
2022-10-17T14:13:36.778Z,32.89
2022-10-17T14:16:09.073Z,32.88
2022-10-17T14:18:41.153Z,32.88
2022-10-17T14:24:31.137Z,32.87
2022-10-17T14:27:03.185Z,32.84
2022-10-17T14:29:53.865Z,32.83
2022-10-17T14:32:25.031Z,32.80
2022-10-17T14:35:18.831Z,32.78
2022-10-17T14:38:03.853Z,32.77
2022-10-17T14:40:37.240Z,32.76
2022-10-17T14:43:08.983Z,32.75
2022-10-17T14:45:41.897Z,32.73
2022-10-17T14:48:18.559Z,32.71
2022-10-17T14:51:12.983Z,32.68
2022-10-17T14:54:05.080Z,32.65
2022-10-17T14:56:43.358Z,32.63
2022-10-17T14:59:30.033Z,32.63
2022-10-17T15:02:07.562Z,32.60
2022-10-17T15:04:37.718Z,32.59
2022-10-17T15:07:07.899Z,32.59
2022-10-17T15:09:38.346Z,32.58
2022-10-17T15:12:18.208Z,32.56
2022-10-17T15:14:49.939Z,32.54
2022-10-17T15:17:30.191Z,32.53
2022-10-17T15:20:02.441Z,32.52
2022-10-17T15:22:35.466Z,32.50
2022-10-17T15:25:07.187Z,32.48
2022-10-17T15:27:41.998Z,32.46
2022-10-17T15:30:25.287Z,32.46
2022-10-17T15:32:57.492Z,32.44
2022-10-17T15:36:05.466Z,32.42
2022-10-17T15:38:36.895Z,32.39
2022-10-17T15:41:15.567Z,32.38
2022-10-17T15:44:04.113Z,32.37
2022-10-17T15:46:38.140Z,32.34
2022-10-17T15:49:23.634Z,32.33
2022-10-17T15:51:55.458Z,32.28
2022-10-17T15:54:28.687Z,32.26
2022-10-17T15:57:02.502Z,32.22
2022-10-17T15:59:37.432Z,32.18
2022-10-17T16:02:14.615Z,32.16
2022-10-17T16:04:47.126Z,32.15
2022-10-17T16:07:17.408Z,32.14
2022-10-17T16:09:48.714Z,32.14
2022-10-17T16:15:30.507Z,32.15
2022-10-17T16:18:04.237Z,32.15
2022-10-17T16:20:38.440Z,32.17
2022-10-17T16:23:11.848Z,32.18
2022-10-17T16:25:42.320Z,32.20
2022-10-17T16:28:14.163Z,32.20
2022-10-17T16:30:51.961Z,32.23
2022-10-17T16:33:43.314Z,32.21
2022-10-17T16:36:15.472Z,32.19
2022-10-17T16:38:45.869Z,32.19
2022-10-17T16:41:28.736Z,32.20
2022-10-17T16:44:01.482Z,32.20
2022-10-17T16:46:37.801Z,32.19
2022-10-17T16:49:15.757Z,32.18
2022-10-17T16:51:56.260Z,32.18
2022-10-17T16:54:33.571Z,32.16
2022-10-17T16:57:10.696Z,32.16
2022-10-17T16:59:44.006Z,32.15
2022-10-17T17:02:17.557Z,32.14
2022-10-17T17:04:53.644Z,32.13
2022-10-17T17:07:30.596Z,32.12
2022-10-17T17:10:02.032Z,32.09
2022-10-17T17:12:36.591Z,32.06
2022-10-17T17:15:08.269Z,32.03
2022-10-17T17:17:50.540Z,32.02
2022-10-17T17:20:37.073Z,32.00
2022-10-17T17:23:15.746Z,31.99
2022-10-17T17:25:48.427Z,31.98
2022-10-17T17:28:19.944Z,31.97
2022-10-17T17:30:51.371Z,31.95
2022-10-17T17:33:25.327Z,31.93
2022-10-17T17:36:02.576Z,31.93
2022-10-17T17:38:36.014Z,31.91
2022-10-17T17:41:06.621Z,31.88
2022-10-17T17:43:37.994Z,31.88
2022-10-17T17:46:21.207Z,31.88
2022-10-17T17:49:04.088Z,31.87
2022-10-17T17:51:39.710Z,31.87
2022-10-17T17:54:13.112Z,31.88
2022-10-17T17:56:48.062Z,31.89
2022-10-17T17:59:22.308Z,31.90
2022-10-17T18:01:53.055Z,31.89
2022-10-17T18:04:25.565Z,31.89
2022-10-17T18:07:00.171Z,31.89
2022-10-17T18:09:32.043Z,31.89
2022-10-17T18:12:02.110Z,31.87
2022-10-17T18:14:36.339Z,31.89
2022-10-17T18:17:06.825Z,31.88
2022-10-17T18:19:37.109Z,31.88
2022-10-17T18:22:07.397Z,31.86
2022-10-17T18:24:39.711Z,31.86
2022-10-17T18:27:10.016Z,31.83
2022-10-17T18:29:39.638Z,31.83
2022-10-17T18:32:09.781Z,31.83
2022-10-17T18:34:40.225Z,31.82
2022-10-17T18:37:10.704Z,31.81
2022-10-17T18:39:43.027Z,31.81
2022-10-17T18:42:13.144Z,31.77
2022-10-17T18:44:44.044Z,31.77
2022-10-17T18:47:14.079Z,31.77
2022-10-17T18:49:44.011Z,31.75
2022-10-17T18:52:15.776Z,31.76
2022-10-17T18:54:47.993Z,31.74
2022-10-17T18:57:21.450Z,31.72
2022-10-17T18:59:54.282Z,31.71
2022-10-17T19:02:24.451Z,31.70
2022-10-17T19:04:54.172Z,31.70
2022-10-17T19:07:24.632Z,31.70
2022-10-17T19:09:56.181Z,31.69
2022-10-17T19:12:26.363Z,31.69
2022-10-17T19:14:57.742Z,31.69
2022-10-17T19:17:28.220Z,31.70
2022-10-17T19:19:58.622Z,31.70
2022-10-17T19:22:28.848Z,31.70
2022-10-17T19:25:03.398Z,31.71
2022-10-17T19:27:33.834Z,31.71
2022-10-17T19:30:04.114Z,31.70
2022-10-17T19:32:34.749Z,31.70
2022-10-17T19:35:05.820Z,31.70
2022-10-17T19:37:36.533Z,31.70
2022-10-17T19:40:10.848Z,31.70
2022-10-17T19:42:41.027Z,31.69
2022-10-17T19:45:12.982Z,31.68
2022-10-17T19:47:43.139Z,31.68
2022-10-17T19:50:13.283Z,31.67
2022-10-17T19:52:43.507Z,31.67
2022-10-17T19:55:15.501Z,31.66
2022-10-17T19:57:45.985Z,31.64
2022-10-17T20:00:18.105Z,31.62
2022-10-17T20:02:48.320Z,31.61
2022-10-17T20:05:19.328Z,31.59
2022-10-17T20:07:50.735Z,31.57
2022-10-17T20:10:24.086Z,31.56
2022-10-17T20:12:54.478Z,31.54
2022-10-17T20:15:24.887Z,31.54
2022-10-17T20:17:55.344Z,31.51
2022-10-17T20:20:25.134Z,31.47
2022-10-17T20:22:55.598Z,31.44
2022-10-17T20:25:27.910Z,31.41
2022-10-17T20:27:57.973Z,31.39
2022-10-17T20:30:28.553Z,31.37
2022-10-17T20:32:58.275Z,31.36
2022-10-17T20:35:28.414Z,31.34
2022-10-17T20:37:58.327Z,31.33
2022-10-17T20:40:35.160Z,31.33
2022-10-17T20:43:08.376Z,31.30
2022-10-17T20:45:50.705Z,31.28
2022-10-17T20:48:21.810Z,31.23
2022-10-17T20:50:52.645Z,31.22
2022-10-17T20:53:39.223Z,31.21
2022-10-17T20:56:21.692Z,31.18
2022-10-17T20:58:57.211Z,31.17
2022-10-17T21:01:28.778Z,31.12
2022-10-17T21:04:10.589Z,31.08
2022-10-17T21:06:49.304Z,31.04
2022-10-17T21:09:19.234Z,31.01
2022-10-17T21:11:55.481Z,31.00
2022-10-17T21:14:27.680Z,30.97
2022-10-17T21:17:01.023Z,30.96
2022-10-17T21:19:33.592Z,30.94
2022-10-17T21:22:04.373Z,30.92
2022-10-17T21:24:34.898Z,30.87
2022-10-17T21:27:09.352Z,30.84
2022-10-17T21:29:39.959Z,30.81
2022-10-17T21:32:19.565Z,30.81
2022-10-17T21:35:00.741Z,30.78
2022-10-17T21:37:31.141Z,30.77
2022-10-17T21:40:01.031Z,30.77
2022-10-17T21:42:33.634Z,30.78
2022-10-17T21:45:10.551Z,30.78
2022-10-17T21:48:11.108Z,30.77
2022-10-17T21:50:36.486Z,30.76
2022-10-17T21:53:06.918Z,30.75
2022-10-17T21:55:39.295Z,30.73
2022-10-17T21:58:11.438Z,30.72
2022-10-17T22:00:41.383Z,30.72
2022-10-17T22:03:13.193Z,30.72
2022-10-17T22:05:43.453Z,30.71
2022-10-17T22:08:14.313Z,30.72
2022-10-17T22:10:44.785Z,30.72
2022-10-17T22:13:16.583Z,30.71
2022-10-17T22:15:46.912Z,30.70
2022-10-17T22:18:17.340Z,30.68
2022-10-17T22:20:47.558Z,30.68
2022-10-17T22:23:17.553Z,30.68
2022-10-17T22:25:55.296Z,30.69
2022-10-17T22:28:28.729Z,30.69
2022-10-17T22:30:59.346Z,30.69
2022-10-17T22:33:29.646Z,30.69
2022-10-17T22:35:59.864Z,30.68
2022-10-17T22:38:30.003Z,30.67
2022-10-17T22:41:00.252Z,30.67
2022-10-17T22:43:32.908Z,30.66
2022-10-17T22:46:06.573Z,30.65
2022-10-17T22:48:37.216Z,30.64
2022-10-17T22:51:07.317Z,30.62
2022-10-17T22:53:38.069Z,30.60
2022-10-17T22:56:12.957Z,30.57
2022-10-17T22:58:45.620Z,30.56
2022-10-17T23:01:18.675Z,30.55
2022-10-17T23:03:49.312Z,30.52
2022-10-17T23:06:19.551Z,30.52
2022-10-17T23:08:49.884Z,30.51
2022-10-17T23:11:21.224Z,30.49
2022-10-17T23:13:53.839Z,30.46
2022-10-17T23:16:23.667Z,30.44
2022-10-17T23:18:54.090Z,30.43
2022-10-17T23:21:24.611Z,30.42
2022-10-17T23:23:54.996Z,30.41
2022-10-17T23:26:25.195Z,30.40
2022-10-17T23:28:59.068Z,30.38
2022-10-17T23:31:29.186Z,30.36
2022-10-17T23:34:01.986Z,30.36
2022-10-17T23:39:08.092Z,30.35
2022-10-17T23:41:38.258Z,30.34
2022-10-17T23:44:11.428Z,30.34
2022-10-17T23:46:41.233Z,30.33
2022-10-17T23:49:11.293Z,30.33
2022-10-17T23:51:41.212Z,30.34
2022-10-17T23:54:11.502Z,30.35
2022-10-17T23:56:41.181Z,30.37
2022-10-17T23:59:13.875Z,30.38
